Time;durP1;ratioP1;P1;durP2;ratioP2;P2;SDS_P1;SDS_P2;PMS_P1;PMS_P2;Temp;Humidity;BMP_temperature;BMP_pressure;BME280_temperature;BME280_humidity;BME280_pressure;Samples;Min_cycle;Max_cycle;Signal;HPM_P1;HPM_P2
2022/12/11 00:02:18;;;;;;;14.43;10.23;;;6.10;73.00;5.70;95466.00;;;;5105298;28;20285;-86
2022/12/11 00:04:46;;;;;;;14.93;11.60;;;6.00;72.90;5.70;95476.00;;;;5107270;28;20305;-85
2022/12/11 00:07:14;;;;;;;16.03;11.33;;;6.10;72.80;5.70;95472.00;;;;5105978;28;20624;-85
2022/12/11 00:09:41;;;;;;;14.93;11.43;;;6.10;72.90;5.70;95478.00;;;;5106772;28;20213;-86
2022/12/11 00:12:08;;;;;;;14.77;10.57;;;6.10;72.90;5.70;95476.00;;;;5108159;28;20281;-86
2022/12/11 00:14:36;;;;;;;13.93;10.97;;;6.10;72.90;5.80;95480.00;;;;5109008;28;20382;-87
2022/12/11 00:17:03;;;;;;;17.57;11.57;;;6.10;73.00;5.80;95472.00;;;;5111224;28;20202;-87
2022/12/11 00:19:30;;;;;;;16.50;11.20;;;6.10;73.20;5.80;95474.00;;;;5110814;28;20281;-87
2022/12/11 00:21:57;;;;;;;14.40;10.53;;;6.10;73.20;5.80;95475.00;;;;5108186;28;20696;-86
2022/12/11 00:24:26;;;;;;;16.73;10.63;;;6.10;73.10;5.80;95478.00;;;;5109139;28;20249;-86
2022/12/11 00:26:53;;;;;;;16.37;10.93;;;6.10;72.90;5.80;95477.00;;;;5107917;28;20281;-87
2022/12/11 00:29:20;;;;;;;14.53;10.13;;;6.10;72.80;5.80;95484.00;;;;5107251;28;20191;-86
2022/12/11 00:31:47;;;;;;;15.77;10.40;;;6.20;73.10;5.80;95483.00;;;;5107306;28;20330;-86
2022/12/11 00:34:15;;;;;;;17.07;10.97;;;6.10;73.10;5.80;95485.00;;;;5107322;28;20257;-86
2022/12/11 00:36:42;;;;;;;14.10;9.90;;;6.10;72.80;5.90;95483.00;;;;5107159;28;20288;-86
2022/12/11 00:39:09;;;;;;;14.57;10.47;;;6.10;73.10;5.90;95481.00;;;;5106803;28;20226;-86
2022/12/11 00:41:38;;;;;;;16.13;10.47;;;6.20;73.10;5.90;95492.00;;;;5109555;28;20261;-87
2022/12/11 00:44:08;;;;;;;14.53;10.40;;;6.20;73.10;5.90;95482.00;;;;5110887;28;20226;-87
2022/12/11 00:46:35;;;;;;;13.47;9.60;;;6.20;73.10;5.90;95479.00;;;;5111754;28;20317;-86
2022/12/11 00:49:03;;;;;;;14.73;10.50;;;6.10;72.90;5.90;95483.00;;;;5110085;28;20237;-87
2022/12/11 00:51:30;;;;;;;13.30;10.53;;;6.20;73.10;5.90;95489.00;;;;5113438;28;20210;-85
2022/12/11 00:53:57;;;;;;;14.73;10.47;;;6.20;73.00;5.90;95492.00;;;;5110235;28;20749;-88
2022/12/11 00:56:24;;;;;;;13.97;10.13;;;6.20;72.70;5.90;95502.00;;;;5110592;28;20203;-87
2022/12/11 00:58:53;;;;;;;15.07;10.43;;;6.20;72.70;5.80;95490.00;;;;5111156;28;20566;-87
2022/12/11 01:01:24;;;;;;;14.10;10.33;;;6.20;72.80;5.80;95486.00;;;;5112058;28;20647;-86
2022/12/11 01:03:52;;;;;;;15.27;10.40;;;6.10;72.70;5.80;95489.00;;;;5109664;28;20306;-87
2022/12/11 01:06:22;;;;;;;13.20;9.70;;;6.10;72.60;5.80;95487.00;;;;5109894;28;20224;-84
2022/12/11 01:10:22;;;;;;;14.40;10.33;;;6.20;72.50;5.80;95482.00;;;;5111306;28;20241;-85
2022/12/11 01:11:37;;;;;;;14.03;9.43;;;6.10;72.40;5.80;95484.00;;;;5107948;28;20198;-85
2022/12/11 01:14:06;;;;;;;15.50;10.80;;;6.10;72.50;5.70;95485.00;;;;5109205;28;20229;-85
2022/12/11 01:16:33;;;;;;;13.17;9.93;;;6.10;72.30;5.70;95482.00;;;;5110598;28;20369;-85
2022/12/11 01:19:02;;;;;;;15.20;10.17;;;6.10;72.50;5.70;95487.00;;;;5108247;28;20924;-86
2022/12/11 01:21:30;;;;;;;14.67;10.43;;;6.10;72.30;5.70;95489.00;;;;5108851;28;20218;-86
2022/12/11 01:23:57;;;;;;;12.60;9.50;;;6.00;72.20;5.70;95501.00;;;;5108066;28;20218;-86
2022/12/11 01:26:25;;;;;;;14.97;10.57;;;6.00;72.20;5.60;95492.00;;;;5110294;28;20321;-85
2022/12/11 01:28:54;;;;;;;13.63;10.03;;;6.00;72.20;5.60;95499.00;;;;5110205;28;20230;-86
2022/12/11 01:31:22;;;;;;;12.50;9.87;;;6.00;72.30;5.60;95496.00;;;;5110056;28;20210;-86
2022/12/11 01:33:49;;;;;;;14.07;10.27;;;6.00;72.30;5.60;95493.00;;;;5108885;28;20632;-86
2022/12/11 01:36:20;;;;;;;13.10;9.80;;;6.00;72.20;5.60;95497.00;;;;5110590;28;20321;-86
2022/12/11 01:38:49;;;;;;;13.77;10.50;;;6.00;72.20;5.60;95502.00;;;;5109903;28;20240;-86
2022/12/11 01:41:18;;;;;;;13.30;9.50;;;6.00;72.30;5.60;95508.00;;;;5110023;28;20854;-86
2022/12/11 01:44:00;;;;;;;12.73;9.73;;;6.00;72.20;5.60;95510.00;;;;5108855;28;20758;-86
2022/12/11 01:46:30;;;;;;;13.90;9.67;;;6.00;72.40;5.60;95510.00;;;;5110110;28;20210;-85
2022/12/11 01:48:59;;;;;;;12.63;9.17;;;6.00;72.50;5.60;95508.00;;;;5109887;28;20226;-86
2022/12/11 01:51:30;;;;;;;12.40;8.83;;;5.90;72.40;5.60;95509.00;;;;5109495;28;20226;-85
2022/12/11 01:54:04;;;;;;;12.13;9.10;;;6.00;72.60;5.60;95511.00;;;;5108352;28;20650;-86
2022/12/11 01:56:35;;;;;;;12.67;9.27;;;6.00;72.50;5.60;95511.00;;;;5109980;28;20285;-86
2022/12/11 01:59:06;;;;;;;13.70;9.17;;;6.00;72.50;5.60;95520.00;;;;5109663;28;20234;-85
2022/12/11 02:01:39;;;;;;;11.00;8.90;;;6.00;72.30;5.60;95516.00;;;;5108176;28;20468;-86
2022/12/11 02:04:09;;;;;;;12.20;9.33;;;6.00;72.20;5.60;95515.00;;;;5108385;28;20310;-85
2022/12/11 02:06:40;;;;;;;10.70;8.40;;;6.00;72.20;5.60;95522.00;;;;5108730;28;20443;-86
2022/12/11 02:09:13;;;;;;;11.13;8.43;;;5.90;72.20;5.60;95519.00;;;;5109069;28;20254;-86
2022/12/11 02:11:54;;;;;;;10.20;7.70;;;6.00;72.40;5.60;95521.00;;;;5109563;28;20208;-85
2022/12/11 02:14:34;;;;;;;11.47;8.13;;;6.00;72.30;5.60;95516.00;;;;5106509;28;20219;-85
2022/12/11 02:17:11;;;;;;;11.37;8.27;;;6.00;72.30;5.60;95519.00;;;;5109666;28;20546;-85
2022/12/11 02:20:02;;;;;;;9.63;7.17;;;6.00;72.20;5.60;95511.00;;;;5110259;28;20244;-85
2022/12/11 02:23:01;;;;;;;9.33;7.57;;;6.00;72.10;5.60;95512.00;;;;5108065;28;20686;-85
2022/12/11 02:25:38;;;;;;;10.30;7.77;;;6.00;72.20;5.60;95512.00;;;;5107559;28;20246;-85
2022/12/11 02:28:18;;;;;;;8.67;7.63;;;5.90;72.10;5.60;95500.00;;;;5110290;28;20194;-87
2022/12/11 02:30:51;;;;;;;10.00;7.80;;;6.00;72.00;5.60;95502.00;;;;5110484;28;20309;-86
2022/12/11 02:33:27;;;;;;;9.37;7.13;;;5.90;72.10;5.60;95506.00;;;;5108443;28;20201;-86
2022/12/11 02:35:57;;;;;;;8.37;7.23;;;5.90;72.20;5.50;95498.00;;;;5110895;28;20229;-86
2022/12/11 02:38:32;;;;;;;9.53;7.83;;;5.90;72.20;5.50;95497.00;;;;5110243;28;20206;-85
2022/12/11 02:41:00;;;;;;;6.87;6.10;;;5.90;72.30;5.40;95511.00;;;;5110742;28;20329;-84
2022/12/11 02:43:33;;;;;;;5.87;5.03;;;5.80;72.20;5.30;95505.00;;;;5108713;28;20227;-85
2022/12/11 02:46:07;;;;;;;4.87;4.17;;;5.80;71.70;5.20;95498.00;;;;5110308;28;20199;-85
2022/12/11 02:48:35;;;;;;;4.57;4.03;;;5.70;71.60;5.10;95498.00;;;;5110646;28;20428;-85
2022/12/11 02:51:06;;;;;;;4.67;3.90;;;5.60;71.30;5.10;95498.00;;;;5111014;28;20472;-84
2022/12/11 02:53:38;;;;;;;4.47;3.83;;;5.60;71.50;5.10;95502.00;;;;5110219;28;20563;-85
2022/12/11 02:56:12;;;;;;;5.00;4.30;;;5.60;71.80;5.00;95500.00;;;;5109830;28;20422;-87
2022/12/11 02:58:48;;;;;;;5.47;4.90;;;5.50;71.70;5.00;95504.00;;;;5110967;28;20543;-85
2022/12/11 03:01:15;;;;;;;5.27;4.67;;;5.50;72.00;5.00;95516.00;;;;5111165;28;20250;-85
2022/12/11 03:03:43;;;;;;;5.20;4.60;;;5.40;72.30;5.00;95514.00;;;;5109911;28;20352;-85
2022/12/11 03:06:18;;;;;;;4.93;4.40;;;5.40;73.00;5.00;95517.00;;;;5109031;28;20471;-84
2022/12/11 03:08:45;;;;;;;5.90;4.80;;;5.40;72.30;5.00;95521.00;;;;5112746;28;20438;-86
2022/12/11 03:11:13;;;;;;;5.23;4.73;;;5.40;72.50;5.00;95520.00;;;;5112372;28;20472;-84
2022/12/11 03:13:42;;;;;;;5.33;4.80;;;5.40;72.70;5.00;95523.00;;;;5109024;28;20559;-84
2022/12/11 03:16:21;;;;;;;6.17;4.50;;;5.40;72.70;5.00;95527.00;;;;5109984;28;20287;-86
2022/12/11 03:19:01;;;;;;;5.20;4.67;;;5.40;72.70;5.00;95508.00;;;;5109172;28;20253;-85
2022/12/11 03:21:36;;;;;;;5.00;4.57;;;5.40;72.90;5.00;95518.00;;;;5108024;28;20578;-84
2022/12/11 03:24:09;;;;;;;5.77;5.13;;;5.40;73.00;5.00;95521.00;;;;5107730;28;20574;-85
2022/12/11 03:26:45;;;;;;;5.37;4.37;;;5.40;73.00;5.00;95517.00;;;;5107350;28;20289;-85
2022/12/11 03:29:21;;;;;;;6.10;5.50;;;5.40;73.00;5.00;95523.00;;;;5108110;28;20548;-84
2022/12/11 03:31:58;;;;;;;4.67;4.20;;;5.40;73.90;5.00;95518.00;;;;5106190;28;20545;-86
2022/12/11 03:34:32;;;;;;;4.60;4.20;;;5.40;73.30;5.00;95521.00;;;;5108567;28;20464;-84
2022/12/11 03:37:01;;;;;;;5.47;4.93;;;5.40;73.20;5.00;95522.00;;;;5108244;28;20455;-86
2022/12/11 03:39:34;;;;;;;5.93;5.10;;;5.40;73.20;5.00;95522.00;;;;5106889;28;20444;-85
2022/12/11 03:42:06;;;;;;;5.93;5.03;;;5.40;73.20;5.00;95524.00;;;;5106773;28;21078;-85
2022/12/11 03:44:37;;;;;;;6.37;5.57;;;5.40;73.20;5.10;95529.00;;;;5107225;28;20535;-84
2022/12/11 03:47:08;;;;;;;6.47;5.23;;;5.40;73.20;5.10;95533.00;;;;5105358;28;20769;-85
2022/12/11 03:49:41;;;;;;;6.03;5.23;;;5.40;73.30;5.10;95529.00;;;;5106332;28;20570;-85
2022/12/11 03:52:13;;;;;;;6.07;5.47;;;5.40;73.40;5.10;95520.00;;;;5107985;28;20230;-85
2022/12/11 03:54:45;;;;;;;7.60;5.73;;;5.40;73.30;5.10;95532.00;;;;5108577;28;20461;-84
2022/12/11 03:57:21;;;;;;;6.87;6.03;;;5.40;73.50;5.10;95533.00;;;;5107540;28;20480;-87
2022/12/11 03:59:50;;;;;;;6.37;5.37;;;5.50;73.50;5.10;95535.00;;;;5107399;28;20293;-84
2022/12/11 04:02:17;;;;;;;6.97;6.13;;;5.50;73.50;5.10;95534.00;;;;5108098;28;20222;-85
2022/12/11 04:04:44;;;;;;;7.13;6.30;;;5.40;73.20;5.10;95532.00;;;;5107585;28;20230;-84
2022/12/11 04:07:12;;;;;;;6.70;6.00;;;5.50;73.20;5.10;95520.00;;;;5106674;28;20328;-85
2022/12/11 04:09:39;;;;;;;6.53;5.87;;;5.50;73.20;5.10;95531.00;;;;5107834;28;20428;-86
2022/12/11 04:12:06;;;;;;;7.37;5.77;;;5.40;73.20;5.10;95536.00;;;;5104963;28;20567;-86
2022/12/11 04:25:30;;;;;;;8.70;6.50;;;5.40;72.90;5.00;95532.00;;;;5106400;28;20231;-86
2022/12/11 04:27:57;;;;;;;7.03;6.33;;;5.40;72.90;5.00;95532.00;;;;5106229;28;20244;-85
2022/12/11 04:30:26;;;;;;;6.60;5.87;;;5.40;72.90;5.00;95534.00;;;;5107582;28;20226;-84
2022/12/11 04:32:55;;;;;;;8.03;6.03;;;5.40;72.80;5.00;95528.00;;;;5106480;28;20289;-85
2022/12/11 04:35:23;;;;;;;7.30;6.27;;;5.40;72.60;5.00;95532.00;;;;5107585;28;20512;-85
2022/12/11 04:37:51;;;;;;;7.43;6.37;;;5.40;72.60;5.00;95528.00;;;;5106598;28;20535;-87
2022/12/11 04:40:20;;;;;;;7.37;6.03;;;5.40;72.40;5.00;95533.00;;;;5106139;28;20452;-88
2022/12/11 04:42:48;;;;;;;7.10;6.00;;;5.40;72.40;5.00;95528.00;;;;5106609;28;20776;-85
2022/12/11 04:45:15;;;;;;;7.03;5.93;;;5.40;72.30;5.00;95530.00;;;;5106190;28;20253;-84
2022/12/11 04:47:43;;;;;;;6.77;6.07;;;5.40;72.10;5.00;95519.00;;;;5107392;28;20958;-85
2022/12/11 04:50:16;;;;;;;6.97;5.90;;;5.40;72.10;4.90;95526.00;;;;5107369;28;20476;-84
2022/12/11 04:52:43;;;;;;;6.53;5.93;;;5.40;72.10;4.90;95528.00;;;;5106564;28;20947;-86
2022/12/11 04:55:11;;;;;;;6.73;6.03;;;5.30;71.90;4.90;95511.00;;;;5106800;28;20302;-86
2022/12/11 04:57:39;;;;;;;6.27;5.67;;;5.30;71.80;4.80;95513.00;;;;5106446;28;20293;-85
2022/12/11 05:00:11;;;;;;;6.27;5.67;;;5.30;71.60;4.80;95519.00;;;;5106004;28;20441;-84
2022/12/11 05:02:40;;;;;;;6.87;5.97;;;5.30;71.50;4.70;95509.00;;;;5104388;28;20267;-83
2022/12/11 05:05:11;;;;;;;8.30;6.63;;;5.20;71.40;4.70;95510.00;;;;5106714;28;20545;-87
2022/12/11 05:07:39;;;;;;;7.83;6.63;;;5.20;71.10;4.70;95513.00;;;;5105806;28;20509;-84
2022/12/11 05:10:09;;;;;;;7.50;6.70;;;5.10;71.20;4.60;95516.00;;;;5106737;28;20436;-84
2022/12/11 05:12:36;;;;;;;7.47;6.07;;;5.10;71.10;4.60;95527.00;;;;5107186;28;20923;-83
2022/12/11 05:15:03;;;;;;;6.53;5.67;;;5.10;71.10;4.60;95524.00;;;;5103781;28;20268;-84
2022/12/11 05:17:30;;;;;;;7.50;6.63;;;5.10;71.20;4.50;95521.00;;;;5106127;28;20230;-84
2022/12/11 05:19:58;;;;;;;7.37;6.57;;;5.10;71.10;4.50;95519.00;;;;5106263;28;20532;-84
2022/12/11 05:22:26;;;;;;;7.13;6.43;;;5.00;70.90;4.50;95502.00;;;;5103005;28;20559;-88
2022/12/11 05:24:53;;;;;;;7.30;6.60;;;5.00;70.90;4.50;95508.00;;;;5106238;28;20484;-85
2022/12/11 05:27:20;;;;;;;8.13;7.33;;;5.00;70.80;4.40;95503.00;;;;5108457;28;20924;-84
2022/12/11 05:29:47;;;;;;;6.83;6.20;;;4.90;70.60;4.40;95495.00;;;;5110544;28;20800;-84
2022/12/11 05:32:15;;;;;;;7.90;7.10;;;4.90;70.50;4.30;95496.00;;;;5109803;28;20461;-84
2022/12/11 05:34:42;;;;;;;7.97;7.17;;;4.80;70.50;4.30;95500.00;;;;5109729;28;20599;-84
2022/12/11 05:37:10;;;;;;;8.87;6.70;;;4.80;70.50;4.20;95498.00;;;;5110218;28;20428;-85
2022/12/11 05:39:39;;;;;;;7.50;6.37;;;4.80;70.40;4.20;95502.00;;;;5108521;28;20468;-85
2022/12/11 05:42:06;;;;;;;9.03;7.07;;;4.70;70.40;4.20;95500.00;;;;5106379;28;20593;-87
2022/12/11 05:44:34;;;;;;;8.77;6.97;;;4.70;70.30;4.10;95502.00;;;;5109233;28;20488;-86
2022/12/11 05:47:01;;;;;;;6.83;6.23;;;4.60;70.10;4.10;95496.00;;;;5108119;28;20531;-85
2022/12/11 05:49:28;;;;;;;8.50;7.07;;;4.60;70.00;4.00;95501.00;;;;5110193;28;20535;-84
2022/12/11 05:51:56;;;;;;;7.97;6.83;;;4.60;69.90;3.90;95497.00;;;;5107019;28;20460;-84
2022/12/11 05:54:23;;;;;;;9.17;7.30;;;4.50;69.80;3.90;95497.00;;;;5107549;28;20483;-87
2022/12/11 05:56:51;;;;;;;6.77;6.07;;;4.50;69.70;3.80;95504.00;;;;5111590;28;20509;-83
2022/12/11 05:59:19;;;;;;;7.50;6.70;;;4.40;69.60;3.80;95506.00;;;;5113330;28;20440;-85
2022/12/11 06:01:46;;;;;;;8.50;7.30;;;4.40;69.90;3.80;95505.00;;;;5118198;28;20875;-83
2022/12/11 06:04:13;;;;;;;7.47;6.70;;;4.30;70.10;3.70;95503.00;;;;5121266;28;20921;-84
2022/12/11 06:06:42;;;;;;;7.20;6.50;;;4.30;70.20;3.70;95504.00;;;;5116984;28;20472;-83
2022/12/11 06:09:15;;;;;;;7.60;6.77;;;4.20;70.30;3.70;95503.00;;;;5115718;28;20487;-83
2022/12/11 06:11:42;;;;;;;6.93;6.27;;;4.20;70.40;3.70;95503.00;;;;5112762;28;20527;-85
2022/12/11 06:14:13;;;;;;;8.33;7.47;;;4.20;70.30;3.60;95496.00;;;;5115213;28;20457;-83
2022/12/11 06:16:40;;;;;;;7.63;6.83;;;4.10;69.80;3.60;95491.00;;;;5113351;28;20542;-83
2022/12/11 06:19:12;;;;;;;8.00;7.20;;;4.10;69.60;3.50;95496.00;;;;5113746;28;20872;-84
2022/12/11 06:21:39;;;;;;;7.83;7.03;;;4.10;69.80;3.50;95493.00;;;;5111921;28;20991;-84
2022/12/11 06:24:07;;;;;;;7.73;6.93;;;4.00;70.60;3.40;95487.00;;;;5113957;28;20496;-84
2022/12/11 06:26:34;;;;;;;7.40;6.67;;;4.00;70.20;3.40;95483.00;;;;5115435;28;20947;-83
2022/12/11 06:29:02;;;;;;;8.97;7.43;;;4.00;70.40;3.40;95488.00;;;;5116903;28;20528;-83
2022/12/11 06:31:30;;;;;;;8.10;7.20;;;3.90;70.40;3.40;95496.00;;;;5115478;28;20494;-83
2022/12/11 06:33:57;;;;;;;7.23;6.53;;;3.90;70.60;3.40;95493.00;;;;5121074;28;20464;-83
2022/12/11 06:36:25;;;;;;;7.80;6.90;;;3.90;70.60;3.40;95489.00;;;;5123293;28;20456;-83
2022/12/11 06:38:54;;;;;;;7.10;6.40;;;3.90;70.70;3.40;95500.00;;;;5122738;28;20493;-83
2022/12/11 06:41:21;;;;;;;7.03;6.30;;;3.90;70.50;3.30;95495.00;;;;5121678;28;20467;-83
2022/12/11 06:43:49;;;;;;;7.53;6.67;;;3.90;70.50;3.30;95500.00;;;;5123555;28;20868;-84
2022/12/11 06:46:18;;;;;;;6.97;6.27;;;3.80;70.10;3.20;95496.00;;;;5120147;28;21002;-84
2022/12/11 06:48:48;;;;;;;7.83;7.03;;;3.80;69.80;3.20;95497.00;;;;5121339;28;20532;-86
2022/12/11 06:51:19;;;;;;;8.30;6.83;;;3.80;69.60;3.10;95494.00;;;;5118841;28;20515;-86
2022/12/11 06:53:51;;;;;;;7.43;6.67;;;3.80;69.80;3.10;95496.00;;;;5118388;28;20456;-85
2022/12/11 06:56:18;;;;;;;7.47;6.67;;;3.70;69.80;3.00;95493.00;;;;5114270;28;20522;-83
2022/12/11 06:58:45;;;;;;;6.77;6.10;;;3.70;70.00;3.00;95483.00;;;;5114154;28;20444;-83
2022/12/11 07:01:18;;;;;;;7.10;6.40;;;3.60;70.00;3.00;95500.00;;;;5112484;28;20497;-83
2022/12/11 07:03:47;;;;;;;7.67;6.87;;;3.60;70.20;3.00;95502.00;;;;5110592;28;20539;-83
2022/12/11 07:06:15;;;;;;;6.43;5.83;;;3.60;70.20;3.00;95503.00;;;;5112817;28;20532;-83
2022/12/11 07:08:43;;;;;;;7.43;6.73;;;3.60;70.30;3.00;95491.00;;;;5112407;28;20440;-84
2022/12/11 07:11:13;;;;;;;7.27;6.57;;;3.60;70.30;3.00;95486.00;;;;5111106;28;20456;-83
2022/12/11 07:13:41;;;;;;;7.30;6.60;;;3.50;70.60;3.00;95493.00;;;;5110017;28;20495;-85
2022/12/11 07:16:11;;;;;;;8.87;7.33;;;3.50;70.70;3.00;95491.00;;;;5111260;28;20449;-84
2022/12/11 07:18:39;;;;;;;9.27;7.50;;;3.50;70.90;3.00;95488.00;;;;5109210;28;20495;-84
2022/12/11 07:21:16;;;;;;;7.77;6.97;;;3.60;71.10;3.10;95489.00;;;;5109761;28;20436;-83
2022/12/11 07:23:44;;;;;;;7.37;6.67;;;3.50;71.20;3.10;95497.00;;;;5109381;28;20494;-83
2022/12/11 07:26:14;;;;;;;7.57;6.60;;;3.60;71.20;3.10;95495.00;;;;5110297;28;20838;-84
2022/12/11 07:28:43;;;;;;;7.70;6.90;;;3.60;71.10;3.10;95508.00;;;;5111445;28;20508;-84
2022/12/11 07:31:14;;;;;;;7.93;6.47;;;3.60;71.30;3.20;95512.00;;;;5108786;28;20520;-85
2022/12/11 07:33:42;;;;;;;8.00;7.20;;;3.60;71.40;3.30;95515.00;;;;5107155;28;20511;-85
2022/12/11 07:36:14;;;;;;;8.00;7.20;;;3.60;71.50;3.30;95516.00;;;;5111603;28;20484;-85
2022/12/11 07:38:42;;;;;;;10.47;8.00;;;3.70;71.40;3.40;95520.00;;;;5109952;28;20440;-85
2022/12/11 07:41:14;;;;;;;8.10;7.20;;;3.70;71.40;3.40;95526.00;;;;5110169;28;20502;-85
2022/12/11 07:43:42;;;;;;;9.07;8.10;;;3.80;72.00;3.50;95511.00;;;;5110536;28;20491;-85
2022/12/11 07:46:12;;;;;;;9.40;8.23;;;3.80;71.70;3.60;95521.00;;;;5111105;28;20900;-84
2022/12/11 07:48:42;;;;;;;8.73;7.37;;;3.80;71.90;3.60;95523.00;;;;5110455;28;20468;-85
2022/12/11 07:51:13;;;;;;;8.40;7.07;;;3.90;72.00;3.70;95523.00;;;;5110185;28;20444;-84
2022/12/11 07:53:41;;;;;;;9.83;7.53;;;3.90;71.80;3.70;95530.00;;;;5109800;28;20468;-84
2022/12/11 07:56:08;;;;;;;9.87;7.90;;;3.90;71.90;3.70;95522.00;;;;5111622;28;20547;-85
2022/12/11 07:58:37;;;;;;;11.10;8.33;;;4.00;71.90;3.80;95531.00;;;;5109594;28;20501;-84
2022/12/11 08:01:05;;;;;;;11.13;8.47;;;4.00;71.80;3.80;95523.00;;;;5110586;28;20449;-84
2022/12/11 08:03:32;;;;;;;10.53;8.37;;;4.10;71.90;3.90;95525.00;;;;5108563;28;20507;-85
2022/12/11 08:05:59;;;;;;;9.33;7.80;;;4.10;71.80;3.90;95531.00;;;;5108513;28;21103;-85
2022/12/11 08:08:28;;;;;;;7.53;6.73;;;4.20;71.90;4.00;95529.00;;;;5116999;28;20448;-85
2022/12/11 08:10:55;;;;;;;9.80;7.53;;;4.20;72.00;4.00;95527.00;;;;5115738;28;20433;-87
2022/12/11 08:13:22;;;;;;;10.70;7.43;;;4.20;71.80;4.10;95529.00;;;;5116374;28;20444;-85
2022/12/11 08:15:50;;;;;;;8.17;7.23;;;4.30;71.50;4.10;95530.00;;;;5118342;28;20464;-86
2022/12/11 08:18:17;;;;;;;9.00;7.23;;;4.30;71.30;4.10;95533.00;;;;5115909;28;20433;-87
2022/12/11 08:20:44;;;;;;;8.90;7.73;;;4.30;71.30;4.20;95535.00;;;;5112552;28;20464;-84
2022/12/11 08:23:11;;;;;;;9.80;8.00;;;4.40;71.60;4.20;95526.00;;;;5115822;28;20507;-84
2022/12/11 08:25:40;;;;;;;11.47;7.90;;;4.40;71.70;4.30;95542.00;;;;5111117;28;20523;-86
2022/12/11 08:28:07;;;;;;;10.83;9.30;;;4.50;71.90;4.30;95532.00;;;;5112533;28;20444;-85
2022/12/11 08:30:34;;;;;;;12.63;9.67;;;4.50;72.00;4.40;95531.00;;;;5111957;28;20455;-85
2022/12/11 08:33:01;;;;;;;10.83;8.63;;;4.50;72.10;4.40;95536.00;;;;5112111;28;20476;-85
2022/12/11 08:35:28;;;;;;;10.13;8.30;;;4.60;72.10;4.50;95538.00;;;;5112648;28;20557;-84
2022/12/11 08:37:56;;;;;;;10.50;8.80;;;4.70;72.00;4.50;95545.00;;;;5109884;28;20453;-86
2022/12/11 08:40:23;;;;;;;10.53;8.63;;;4.70;71.90;4.60;95544.00;;;;5117508;28;20521;-86
2022/12/11 08:42:51;;;;;;;11.27;8.53;;;4.70;71.50;4.60;95540.00;;;;5112721;28;20282;-86
2022/12/11 08:45:19;;;;;;;10.93;8.67;;;4.80;71.50;4.60;95547.00;;;;5112106;28;20491;-85
2022/12/11 08:47:46;;;;;;;10.40;8.47;;;4.80;71.70;4.60;95541.00;;;;5115737;28;20471;-85
2022/12/11 08:50:13;;;;;;;10.37;8.40;;;4.80;71.60;4.70;95537.00;;;;5118346;28;21023;-85
2022/12/11 08:52:40;;;;;;;10.30;9.23;;;4.90;71.50;4.70;95537.00;;;;5120015;28;20206;-86
2022/12/11 08:55:08;;;;;;;11.77;9.40;;;4.90;71.40;4.80;95537.00;;;;5123567;28;20448;-85
2022/12/11 08:57:38;;;;;;;11.43;9.37;;;4.90;71.40;4.80;95555.00;;;;5119096;28;20454;-84
2022/12/11 09:00:11;;;;;;;11.30;9.63;;;5.00;72.00;4.80;95545.00;;;;5115701;28;20446;-88
2022/12/11 09:02:38;;;;;;;12.60;10.20;;;5.00;71.50;4.90;95541.00;;;;5116443;28;20539;-87
2022/12/11 09:05:08;;;;;;;12.23;10.17;;;5.10;71.60;4.90;95547.00;;;;5116024;28;20215;-84
2022/12/11 09:07:37;;;;;;;12.13;9.77;;;5.10;71.60;5.00;95546.00;;;;5115117;28;20657;-87
2022/12/11 09:10:06;;;;;;;13.00;9.70;;;5.10;71.50;5.00;95553.00;;;;5114120;28;20251;-84
2022/12/11 09:12:34;;;;;;;12.03;9.40;;;5.20;71.40;5.00;95548.00;;;;5115090;28;20474;-84
2022/12/11 09:15:01;;;;;;;11.30;9.17;;;5.20;71.30;5.10;95558.00;;;;5113987;28;20521;-86
2022/12/11 09:17:36;;;;;;;11.60;9.50;;;5.20;71.30;5.10;95545.00;;;;5114684;28;20449;-86
2022/12/11 09:20:05;;;;;;;11.30;8.77;;;5.30;71.10;5.10;95551.00;;;;5115369;28;20444;-84
2022/12/11 09:22:33;;;;;;;11.33;9.53;;;5.30;71.20;5.20;95547.00;;;;5114426;28;20222;-84
2022/12/11 09:25:00;;;;;;;11.80;9.53;;;5.30;71.40;5.20;95540.00;;;;5108514;28;20375;-85
2022/12/11 09:27:28;;;;;;;12.60;8.83;;;5.30;71.30;5.30;95552.00;;;;5111961;28;20203;-85
2022/12/11 09:29:55;;;;;;;10.60;8.27;;;5.40;71.00;5.30;95548.00;;;;5117706;28;20191;-87
2022/12/11 09:32:22;;;;;;;11.47;9.07;;;5.40;71.10;5.30;95550.00;;;;5111975;28;20266;-84
2022/12/11 09:34:52;;;;;;;9.60;7.83;;;5.40;71.10;5.40;95546.00;;;;5116391;28;20501;-86
2022/12/11 09:37:19;;;;;;;11.90;9.47;;;5.50;71.00;5.40;95548.00;;;;5115734;28;20201;-85
2022/12/11 09:39:46;;;;;;;10.57;8.40;;;5.50;71.00;5.40;95541.00;;;;5116833;28;20191;-85
2022/12/11 09:42:24;;;;;;;10.23;8.33;;;5.50;71.10;5.40;95543.00;;;;5115799;28;20210;-88
2022/12/11 09:44:57;;;;;;;10.07;8.60;;;5.50;70.90;5.50;95534.00;;;;5114877;28;20253;-87
2022/12/11 09:47:34;;;;;;;11.00;8.77;;;5.60;72.00;5.50;95534.00;;;;5116655;28;20765;-85
2022/12/11 09:50:15;;;;;;;9.97;8.10;;;5.60;71.10;5.50;95530.00;;;;5117206;28;20286;-86
2022/12/11 09:52:58;;;;;;;10.80;8.57;;;5.60;70.60;5.50;95532.00;;;;5116181;28;20194;-86
2022/12/11 09:55:35;;;;;;;10.93;9.13;;;5.60;70.50;5.50;95535.00;;;;5114139;28;20252;-85
2022/12/11 09:58:13;;;;;;;10.50;8.50;;;5.60;70.50;5.50;95528.00;;;;5115010;28;20267;-85
2022/12/11 10:00:47;;;;;;;11.07;9.03;;;5.70;70.60;5.50;95526.00;;;;5113581;28;20854;-85
2022/12/11 10:03:56;;;;;;;10.30;8.47;;;5.70;70.60;5.50;95525.00;;;;5114322;28;20258;-85
2022/12/11 10:06:34;;;;;;;11.10;8.63;;;5.70;70.20;5.50;95525.00;;;;5113842;28;20198;-85
2022/12/11 10:09:17;;;;;;;13.00;9.50;;;5.70;70.30;5.50;95519.00;;;;5113868;28;20317;-85
2022/12/11 10:12:02;;;;;;;11.87;8.83;;;5.70;70.00;5.50;95521.00;;;;5110425;28;20351;-88
2022/12/11 10:14:48;;;;;;;9.33;7.80;;;5.70;70.00;5.40;95517.00;;;;5109957;28;20291;-85
2022/12/11 10:17:22;;;;;;;12.43;8.93;;;5.70;70.10;5.40;95516.00;;;;5112624;28;20222;-85
2022/12/11 10:19:50;;;;;;;12.73;9.00;;;5.70;69.90;5.40;95520.00;;;;5114625;28;20225;-87
2022/12/11 10:22:24;;;;;;;12.23;9.40;;;5.70;70.00;5.40;95514.00;;;;5112980;28;20226;-84
2022/12/11 10:24:57;;;;;;;9.73;7.67;;;5.70;70.10;5.40;95501.00;;;;5113291;28;20229;-85
2022/12/11 10:27:30;;;;;;;11.90;8.43;;;5.70;70.00;5.30;95509.00;;;;5112692;28;20274;-84
2022/12/11 10:30:08;;;;;;;11.43;8.13;;;5.60;69.90;5.30;95501.00;;;;5110572;28;20854;-86
2022/12/11 10:32:48;;;;;;;10.93;8.03;;;5.60;69.90;5.30;95497.00;;;;5112637;28;20269;-85
2022/12/11 10:35:26;;;;;;;9.30;7.30;;;5.60;69.50;5.20;95490.00;;;;5112217;28;20835;-84
2022/12/11 10:38:02;;;;;;;9.93;7.77;;;5.60;69.50;5.20;95491.00;;;;5112256;28;20191;-85
2022/12/11 10:40:32;;;;;;;10.17;7.90;;;5.60;69.70;5.30;95486.00;;;;5108574;28;20195;-88
2022/12/11 10:42:59;;;;;;;8.13;6.97;;;5.60;70.00;5.30;95494.00;;;;5110661;28;20238;-87
2022/12/11 10:45:26;;;;;;;9.60;7.20;;;5.60;70.10;5.30;95488.00;;;;5106117;28;20273;-86
2022/12/11 10:48:04;;;;;;;8.63;7.77;;;5.60;70.00;5.40;95483.00;;;;5104154;28;20559;-85
2022/12/11 10:50:32;;;;;;;8.40;7.10;;;5.60;70.10;5.40;95490.00;;;;5110199;28;20201;-84
2022/12/11 10:53:01;;;;;;;7.93;6.47;;;5.60;70.00;5.40;95482.00;;;;5109172;28;20317;-85
2022/12/11 10:55:39;;;;;;;7.57;6.50;;;5.60;69.70;5.50;95480.00;;;;5113458;28;20226;-85
2022/12/11 10:58:07;;;;;;;7.60;6.50;;;5.70;69.50;5.40;95482.00;;;;5114950;28;20218;-85
2022/12/11 11:00:38;;;;;;;8.70;6.83;;;5.70;69.30;5.40;95485.00;;;;5117430;28;20230;-85
2022/12/11 11:03:19;;;;;;;8.80;6.70;;;5.70;69.30;5.40;95475.00;;;;5117776;28;20199;-85
2022/12/11 11:05:47;;;;;;;8.27;6.30;;;5.70;69.10;5.40;95467.00;;;;5114878;28;20202;-85
2022/12/11 11:08:19;;;;;;;7.53;6.30;;;5.70;69.00;5.40;95463.00;;;;5111708;28;20186;-85
2022/12/11 11:10:56;;;;;;;7.67;6.87;;;5.70;68.80;5.40;95463.00;;;;5112715;28;20202;-87
2022/12/11 11:13:26;;;;;;;8.23;6.70;;;5.70;69.00;5.40;95462.00;;;;5112197;28;20304;-85
2022/12/11 11:16:03;;;;;;;6.67;5.87;;;5.70;69.30;5.50;95450.00;;;;5112405;28;20209;-85
2022/12/11 11:18:32;;;;;;;7.70;6.27;;;5.70;69.30;5.50;95452.00;;;;5114365;28;20262;-85
2022/12/11 11:21:00;;;;;;;9.60;7.33;;;5.70;69.40;5.50;95452.00;;;;5111684;28;20195;-88
2022/12/11 11:23:29;;;;;;;10.87;8.13;;;5.70;69.30;5.50;95450.00;;;;5113982;28;20222;-88
2022/12/11 11:26:00;;;;;;;10.27;7.87;;;5.70;69.10;5.50;95443.00;;;;5108158;28;20195;-85
2022/12/11 11:28:34;;;;;;;10.03;8.00;;;5.70;69.00;5.50;95440.00;;;;5108947;28;20204;-87
2022/12/11 11:31:05;;;;;;;6.97;6.27;;;5.80;69.10;5.60;95438.00;;;;5108874;28;20208;-87